sensor_id;sensor_type;location;lat;lon;timestamp;pressure;altitude;pressure_sealevel;temperature;humidity
73171;BME280;61381;50.118;19.962;2023-04-28T00:00:59;98946.25;;;2.20;100.00
73171;BME280;61381;50.118;19.962;2023-04-28T00:06:01;98943.69;;;2.13;100.00
73171;BME280;61381;50.118;19.962;2023-04-28T00:11:03;98939.13;;;2.39;100.00
73171;BME280;61381;50.118;19.962;2023-04-28T00:16:04;98939.97;;;2.58;100.00
73171;BME280;61381;50.118;19.962;2023-04-28T00:21:07;98929.09;;;2.47;100.00
73171;BME280;61381;50.118;19.962;2023-04-28T00:26:08;98925.13;;;2.38;100.00
73171;BME280;61381;50.118;19.962;2023-04-28T00:31:09;98926.31;;;2.42;100.00
73171;BME280;61381;50.118;19.962;2023-04-28T00:36:12;98925.78;;;2.34;100.00
73171;BME280;61381;50.118;19.962;2023-04-28T00:41:13;98923.44;;;2.25;100.00
73171;BME280;61381;50.118;19.962;2023-04-28T00:46:19;98916.81;;;2.16;100.00
73171;BME280;61381;50.118;19.962;2023-04-28T00:51:22;98914.00;;;2.11;100.00
73171;BME280;61381;50.118;19.962;2023-04-28T00:56:23;98919.00;;;2.01;100.00
73171;BME280;61381;50.118;19.962;2023-04-28T01:01:24;98919.50;;;2.09;100.00
73171;BME280;61381;50.118;19.962;2023-04-28T01:06:27;98927.09;;;2.24;100.00
73171;BME280;61381;50.118;19.962;2023-04-28T01:11:28;98915.50;;;2.25;100.00
73171;BME280;61381;50.118;19.962;2023-04-28T01:16:29;98922.16;;;2.28;100.00
73171;BME280;61381;50.118;19.962;2023-04-28T01:21:33;98927.63;;;2.33;100.00
73171;BME280;61381;50.118;19.962;2023-04-28T01:26:35;98927.84;;;2.31;100.00
73171;BME280;61381;50.118;19.962;2023-04-28T01:31:36;98928.28;;;2.28;100.00
73171;BME280;61381;50.118;19.962;2023-04-28T01:36:37;98927.63;;;2.52;100.00
73171;BME280;61381;50.118;19.962;2023-04-28T01:41:40;98933.00;;;2.63;100.00
73171;BME280;61381;50.118;19.962;2023-04-28T01:46:41;98932.03;;;2.58;100.00
73171;BME280;61381;50.118;19.962;2023-04-28T01:51:42;98933.34;;;2.48;100.00
73171;BME280;61381;50.118;19.962;2023-04-28T01:56:44;98924.47;;;2.43;100.00
73171;BME280;61381;50.118;19.962;2023-04-28T02:01:45;98926.59;;;2.34;100.00
73171;BME280;61381;50.118;19.962;2023-04-28T02:06:46;98924.09;;;2.21;100.00
73171;BME280;61381;50.118;19.962;2023-04-28T02:11:48;98924.91;;;2.40;100.00
73171;BME280;61381;50.118;19.962;2023-04-28T02:16:49;98929.53;;;2.44;100.00
73171;BME280;61381;50.118;19.962;2023-04-28T02:21:51;98928.06;;;2.30;100.00
73171;BME280;61381;50.118;19.962;2023-04-28T02:26:53;98930.63;;;2.37;100.00
73171;BME280;61381;50.118;19.962;2023-04-28T02:31:54;98926.00;;;2.32;100.00
73171;BME280;61381;50.118;19.962;2023-04-28T02:36:55;98929.88;;;2.29;100.00
73171;BME280;61381;50.118;19.962;2023-04-28T02:41:57;98925.91;;;2.20;100.00
73171;BME280;61381;50.118;19.962;2023-04-28T02:46:58;98926.63;;;2.09;100.00
73171;BME280;61381;50.118;19.962;2023-04-28T02:51:59;98924.34;;;2.12;100.00
73171;BME280;61381;50.118;19.962;2023-04-28T02:57:02;98933.13;;;2.13;100.00
73171;BME280;61381;50.118;19.962;2023-04-28T03:02:03;98926.06;;;2.07;100.00
73171;BME280;61381;50.118;19.962;2023-04-28T03:07:04;98923.31;;;1.95;100.00
73171;BME280;61381;50.118;19.962;2023-04-28T03:12:07;98919.97;;;1.81;100.00
73171;BME280;61381;50.118;19.962;2023-04-28T03:17:08;98923.78;;;1.85;100.00
73171;BME280;61381;50.118;19.962;2023-04-28T03:22:09;98924.94;;;1.71;100.00
73171;BME280;61381;50.118;19.962;2023-04-28T03:27:11;98932.19;;;1.50;100.00
73171;BME280;61381;50.118;19.962;2023-04-28T03:32:12;98933.50;;;1.41;100.00
73171;BME280;61381;50.118;19.962;2023-04-28T03:37:13;98927.59;;;1.39;100.00
73171;BME280;61381;50.118;19.962;2023-04-28T03:42:16;98926.22;;;1.62;100.00
73171;BME280;61381;50.118;19.962;2023-04-28T03:47:17;98932.28;;;1.69;100.00
73171;BME280;61381;50.118;19.962;2023-04-28T03:52:18;98935.44;;;2.03;100.00
73171;BME280;61381;50.118;19.962;2023-04-28T03:57:20;98937.13;;;2.16;100.00
73171;BME280;61381;50.118;19.962;2023-04-28T04:02:21;98932.25;;;2.19;100.00
73171;BME280;61381;50.118;19.962;2023-04-28T04:07:22;98937.78;;;2.11;100.00
73171;BME280;61381;50.118;19.962;2023-04-28T04:12:24;98936.19;;;2.10;100.00
73171;BME280;61381;50.118;19.962;2023-04-28T04:17:25;98933.16;;;2.06;100.00
73171;BME280;61381;50.118;19.962;2023-04-28T04:22:26;98934.06;;;2.37;100.00
73171;BME280;61381;50.118;19.962;2023-04-28T04:27:29;98943.09;;;3.03;100.00
73171;BME280;61381;50.118;19.962;2023-04-28T04:32:30;98943.84;;;5.12;100.00
73171;BME280;61381;50.118;19.962;2023-04-28T04:37:32;98953.63;;;6.20;100.00
73171;BME280;61381;50.118;19.962;2023-04-28T04:42:34;98952.59;;;6.43;100.00
73171;BME280;61381;50.118;19.962;2023-04-28T04:47:35;98958.78;;;8.82;100.00
73171;BME280;61381;50.118;19.962;2023-04-28T04:52:36;98965.56;;;10.80;85.39
73171;BME280;61381;50.118;19.962;2023-04-28T04:57:39;98968.91;;;11.17;83.08
73171;BME280;61381;50.118;19.962;2023-04-28T05:02:39;98971.63;;;12.55;75.64
73171;BME280;61381;50.118;19.962;2023-04-28T05:07:42;98975.22;;;13.74;67.17
73171;BME280;61381;50.118;19.962;2023-04-28T05:12:44;98990.06;;;14.85;58.66
73171;BME280;61381;50.118;19.962;2023-04-28T05:17:45;98995.78;;;16.07;53.93
73171;BME280;61381;50.118;19.962;2023-04-28T05:22:46;98992.91;;;17.06;48.50
73171;BME280;61381;50.118;19.962;2023-04-28T05:27:49;98994.84;;;17.14;48.26
73171;BME280;61381;50.118;19.962;2023-04-28T05:32:50;98995.53;;;18.16;43.76
73171;BME280;61381;50.118;19.962;2023-04-28T05:37:51;99009.41;;;17.88;43.56
73171;BME280;61381;50.118;19.962;2023-04-28T05:42:53;99005.19;;;18.52;41.69
73171;BME280;61381;50.118;19.962;2023-04-28T05:47:54;99006.34;;;18.81;38.84
73171;BME280;61381;50.118;19.962;2023-04-28T05:52:55;99010.13;;;19.27;38.19
73171;BME280;61381;50.118;19.962;2023-04-28T05:57:58;99016.84;;;18.91;38.36
73171;BME280;61381;50.118;19.962;2023-04-28T06:02:59;99029.38;;;21.10;34.05
73171;BME280;61381;50.118;19.962;2023-04-28T06:08:00;99015.97;;;17.96;40.53
73171;BME280;61381;50.118;19.962;2023-04-28T06:13:02;99012.06;;;14.59;46.84
73171;BME280;61381;50.118;19.962;2023-04-28T06:18:03;98999.50;;;12.00;54.84
73171;BME280;61381;50.118;19.962;2023-04-28T06:23:04;98989.34;;;10.97;60.42
73171;BME280;61381;50.118;19.962;2023-04-28T06:28:07;98989.53;;;12.35;55.34
73171;BME280;61381;50.118;19.962;2023-04-28T06:33:08;98999.75;;;14.86;46.27
73171;BME280;61381;50.118;19.962;2023-04-28T06:38:09;99014.03;;;16.23;40.87
73171;BME280;61381;50.118;19.962;2023-04-28T06:43:12;99013.91;;;18.10;37.84
73171;BME280;61381;50.118;19.962;2023-04-28T06:48:13;99011.44;;;18.44;35.89
73171;BME280;61381;50.118;19.962;2023-04-28T06:53:14;99006.41;;;17.72;38.36
73171;BME280;61381;50.118;19.962;2023-04-28T06:58:17;99000.81;;;18.21;35.62
73171;BME280;61381;50.118;19.962;2023-04-28T07:03:18;98995.25;;;17.91;38.32
73171;BME280;61381;50.118;19.962;2023-04-28T07:08:19;98999.66;;;18.78;33.66
73171;BME280;61381;50.118;19.962;2023-04-28T07:13:21;98999.97;;;18.85;33.96
73171;BME280;61381;50.118;19.962;2023-04-28T07:18:23;98987.69;;;16.69;37.74
73171;BME280;61381;50.118;19.962;2023-04-28T07:23:23;98987.53;;;17.23;35.92
73171;BME280;61381;50.118;19.962;2023-04-28T07:28:26;98976.28;;;17.91;36.20
73171;BME280;61381;50.118;19.962;2023-04-28T07:33:27;98982.50;;;18.57;34.27
73171;BME280;61381;50.118;19.962;2023-04-28T07:38:28;98975.94;;;17.58;34.88
73171;BME280;61381;50.118;19.962;2023-04-28T07:43:31;98972.59;;;18.13;33.44
73171;BME280;61381;50.118;19.962;2023-04-28T07:48:32;98967.47;;;17.33;34.23
73171;BME280;61381;50.118;19.962;2023-04-28T07:53:33;98960.66;;;18.53;33.00
73171;BME280;61381;50.118;19.962;2023-04-28T07:58:36;98958.41;;;17.46;34.00
73171;BME280;61381;50.118;19.962;2023-04-28T08:03:37;98962.84;;;18.04;33.09
73171;BME280;61381;50.118;19.962;2023-04-28T08:08:38;98960.88;;;18.30;31.76
73171;BME280;61381;50.118;19.962;2023-04-28T08:13:41;98950.94;;;17.26;34.36
73171;BME280;61381;50.118;19.962;2023-04-28T08:18:42;98952.94;;;16.63;35.69
73171;BME280;61381;50.118;19.962;2023-04-28T08:23:43;98949.78;;;15.98;36.75
73171;BME280;61381;50.118;19.962;2023-04-28T08:28:45;98945.44;;;15.74;37.30
73171;BME280;61381;50.118;19.962;2023-04-28T08:33:46;98939.69;;;15.67;36.28
73171;BME280;61381;50.118;19.962;2023-04-28T08:38:47;98941.06;;;15.19;37.78
73171;BME280;61381;50.118;19.962;2023-04-28T08:43:50;98938.28;;;15.10;36.52
73171;BME280;61381;50.118;19.962;2023-04-28T08:48:58;98937.03;;;15.90;34.27
73171;BME280;61381;50.118;19.962;2023-04-28T08:54:01;98938.59;;;16.13;33.29
73171;BME280;61381;50.118;19.962;2023-04-28T08:59:04;98933.66;;;16.15;34.13
73171;BME280;61381;50.118;19.962;2023-04-28T09:04:05;98929.19;;;17.00;32.47
73171;BME280;61381;50.118;19.962;2023-04-28T09:09:20;98928.34;;;16.33;31.80
73171;BME280;61381;50.118;19.962;2023-04-28T09:14:22;98927.41;;;16.37;32.11
73171;BME280;61381;50.118;19.962;2023-04-28T09:19:31;98913.47;;;16.13;33.36
73171;BME280;61381;50.118;19.962;2023-04-28T09:24:34;98916.91;;;16.36;30.74
73171;BME280;61381;50.118;19.962;2023-04-28T09:29:37;98905.97;;;16.10;31.69
73171;BME280;61381;50.118;19.962;2023-04-28T09:34:43;98896.91;;;17.03;29.65
73171;BME280;61381;50.118;19.962;2023-04-28T09:39:45;98890.38;;;15.16;31.93
73171;BME280;61381;50.118;19.962;2023-04-28T09:44:53;98892.28;;;16.06;32.84
73171;BME280;61381;50.118;19.962;2023-04-28T09:49:54;98883.88;;;16.56;32.75
73171;BME280;61381;50.118;19.962;2023-04-28T09:54:56;98876.94;;;17.78;32.99
73171;BME280;61381;50.118;19.962;2023-04-28T09:59:59;98869.16;;;17.50;28.38
73171;BME280;61381;50.118;19.962;2023-04-28T10:05:00;98850.91;;;14.70;33.91
73171;BME280;61381;50.118;19.962;2023-04-28T10:10:02;98854.78;;;14.77;35.22
73171;BME280;61381;50.118;19.962;2023-04-28T10:15:06;98845.88;;;15.59;35.25
73171;BME280;61381;50.118;19.962;2023-04-28T10:20:10;98854.03;;;15.36;34.75
73171;BME280;61381;50.118;19.962;2023-04-28T10:25:25;98834.47;;;15.62;34.65
73171;BME280;61381;50.118;19.962;2023-04-28T10:30:28;98837.97;;;16.91;34.93
73171;BME280;61381;50.118;19.962;2023-04-28T10:35:43;98827.47;;;16.99;33.99
73171;BME280;61381;50.118;19.962;2023-04-28T10:40:45;98834.38;;;15.76;32.13
73171;BME280;61381;50.118;19.962;2023-04-28T10:46:00;98814.13;;;15.33;35.07
73171;BME280;61381;50.118;19.962;2023-04-28T10:51:26;98804.84;;;16.11;33.90
73171;BME280;61381;50.118;19.962;2023-04-28T10:56:27;98791.56;;;15.60;34.25
73171;BME280;61381;50.118;19.962;2023-04-28T11:01:30;98790.50;;;14.57;34.75
73171;BME280;61381;50.118;19.962;2023-04-28T11:06:32;98788.88;;;14.56;36.55
73171;BME280;61381;50.118;19.962;2023-04-28T11:11:34;98785.47;;;14.78;36.73
73171;BME280;61381;50.118;19.962;2023-04-28T11:16:47;98771.38;;;14.31;35.76
73171;BME280;61381;50.118;19.962;2023-04-28T11:21:49;98777.44;;;15.09;35.57
73171;BME280;61381;50.118;19.962;2023-04-28T11:26:51;98775.53;;;15.95;34.63
73171;BME280;61381;50.118;19.962;2023-04-28T11:31:54;98773.09;;;16.34;34.40
73171;BME280;61381;50.118;19.962;2023-04-28T11:36:55;98763.13;;;17.04;33.08
73171;BME280;61381;50.118;19.962;2023-04-28T11:41:56;98758.16;;;17.41;32.89
73171;BME280;61381;50.118;19.962;2023-04-28T11:47:00;98763.47;;;16.68;31.32
73171;BME280;61381;50.118;19.962;2023-04-28T11:52:04;98749.91;;;17.11;31.72
73171;BME280;61381;50.118;19.962;2023-04-28T11:57:05;98743.56;;;16.99;35.89
73171;BME280;61381;50.118;19.962;2023-04-28T12:02:08;98734.94;;;16.35;33.27
73171;BME280;61381;50.118;19.962;2023-04-28T12:07:12;98727.00;;;17.56;32.31
73171;BME280;61381;50.118;19.962;2023-04-28T12:12:14;98719.03;;;17.13;31.33
73171;BME280;61381;50.118;19.962;2023-04-28T12:17:23;98715.38;;;17.08;32.74
73171;BME280;61381;50.118;19.962;2023-04-28T12:22:25;98697.56;;;16.64;35.85
73171;BME280;61381;50.118;19.962;2023-04-28T12:27:26;98688.16;;;16.26;33.76
73171;BME280;61381;50.118;19.962;2023-04-28T12:32:38;98684.81;;;16.82;33.48
73171;BME280;61381;50.118;19.962;2023-04-28T12:37:41;98688.69;;;17.37;31.67
73171;BME280;61381;50.118;19.962;2023-04-28T12:42:44;98681.97;;;16.87;32.37
73171;BME280;61381;50.118;19.962;2023-04-28T12:47:47;98671.13;;;15.99;32.71
73171;BME280;61381;50.118;19.962;2023-04-28T12:52:48;98668.63;;;16.47;32.93
73171;BME280;61381;50.118;19.962;2023-04-28T12:57:49;98661.63;;;16.28;33.70
73171;BME280;61381;50.118;19.962;2023-04-28T13:02:51;98659.47;;;17.04;32.12
73171;BME280;61381;50.118;19.962;2023-04-28T13:07:52;98650.88;;;17.49;32.99
73171;BME280;61381;50.118;19.962;2023-04-28T13:12:53;98646.56;;;17.09;33.26
73171;BME280;61381;50.118;19.962;2023-04-28T13:17:56;98637.06;;;16.94;34.30
73171;BME280;61381;50.118;19.962;2023-04-28T13:22:57;98640.31;;;16.27;32.59
73171;BME280;61381;50.118;19.962;2023-04-28T13:27:58;98621.38;;;16.53;34.08
73171;BME280;61381;50.118;19.962;2023-04-28T13:33:00;98611.84;;;16.47;34.78
73171;BME280;61381;50.118;19.962;2023-04-28T13:38:01;98609.41;;;16.63;34.33
73171;BME280;61381;50.118;19.962;2023-04-28T13:43:02;98614.88;;;17.10;32.53
73171;BME280;61381;50.118;19.962;2023-04-28T13:48:05;98606.31;;;17.68;31.45
73171;BME280;61381;50.118;19.962;2023-04-28T13:53:06;98599.97;;;16.95;31.99
73171;BME280;61381;50.118;19.962;2023-04-28T13:58:06;98592.16;;;16.93;33.46
73171;BME280;61381;50.118;19.962;2023-04-28T14:03:09;98584.69;;;16.90;35.25
73171;BME280;61381;50.118;19.962;2023-04-28T14:08:10;98572.16;;;16.77;34.08
73171;BME280;61381;50.118;19.962;2023-04-28T14:13:11;98575.09;;;16.37;34.19
73171;BME280;61381;50.118;19.962;2023-04-28T14:18:13;98573.19;;;16.29;34.84
73171;BME280;61381;50.118;19.962;2023-04-28T14:23:14;98561.91;;;16.27;33.68
73171;BME280;61381;50.118;19.962;2023-04-28T14:28:16;98553.97;;;16.13;35.56
73171;BME280;61381;50.118;19.962;2023-04-28T14:33:18;98562.22;;;16.34;33.87
73171;BME280;61381;50.118;19.962;2023-04-28T14:38:19;98549.09;;;16.71;33.81
73171;BME280;61381;50.118;19.962;2023-04-28T14:43:20;98545.88;;;16.77;34.48
73171;BME280;61381;50.118;19.962;2023-04-28T14:48:23;98539.25;;;17.14;34.80
73171;BME280;61381;50.118;19.962;2023-04-28T14:53:24;98547.47;;;17.47;33.60
73171;BME280;61381;50.118;19.962;2023-04-28T14:58:25;98546.03;;;16.90;34.23
73171;BME280;61381;50.118;19.962;2023-04-28T15:03:27;98538.78;;;17.03;34.40
73171;BME280;61381;50.118;19.962;2023-04-28T15:08:28;98534.19;;;16.47;35.20
73171;BME280;61381;50.118;19.962;2023-04-28T15:13:29;98535.34;;;16.85;34.82
73171;BME280;61381;50.118;19.962;2023-04-28T15:18:32;98527.88;;;16.90;35.39
73171;BME280;61381;50.118;19.962;2023-04-28T15:23:33;98519.94;;;16.76;35.43
73171;BME280;61381;50.118;19.962;2023-04-28T15:28:34;98527.81;;;16.43;35.23
73171;BME280;61381;50.118;19.962;2023-04-28T15:33:36;98525.03;;;16.13;36.13
73171;BME280;61381;50.118;19.962;2023-04-28T15:38:37;98519.31;;;16.23;36.13
73171;BME280;61381;50.118;19.962;2023-04-28T15:43:38;98514.69;;;16.33;36.44
73171;BME280;61381;50.118;19.962;2023-04-28T15:48:40;98521.81;;;16.93;36.07
73171;BME280;61381;50.118;19.962;2023-04-28T15:53:41;98516.72;;;16.36;35.61
73171;BME280;61381;50.118;19.962;2023-04-28T15:58:42;98510.09;;;15.98;36.33
73171;BME280;61381;50.118;19.962;2023-04-28T16:03:45;98498.03;;;15.96;36.75
73171;BME280;61381;50.118;19.962;2023-04-28T16:08:46;98500.88;;;15.99;36.85
73171;BME280;61381;50.118;19.962;2023-04-28T16:13:47;98492.59;;;15.43;37.64
73171;BME280;61381;50.118;19.962;2023-04-28T16:18:49;98492.91;;;15.50;38.28
73171;BME280;61381;50.118;19.962;2023-04-28T16:23:50;98477.16;;;15.26;39.51
73171;BME280;61381;50.118;19.962;2023-04-28T16:28:51;98476.72;;;15.50;39.84
73171;BME280;61381;50.118;19.962;2023-04-28T16:33:54;98475.22;;;15.01;40.35
73171;BME280;61381;50.118;19.962;2023-04-28T16:38:55;98471.19;;;14.72;40.81
73171;BME280;61381;50.118;19.962;2023-04-28T16:43:56;98469.09;;;14.37;42.08
73171;BME280;61381;50.118;19.962;2023-04-28T16:48:58;98464.22;;;14.17;41.67
73171;BME280;61381;50.118;19.962;2023-04-28T16:53:59;98452.09;;;14.05;42.76
73171;BME280;61381;50.118;19.962;2023-04-28T16:59:01;98452.19;;;13.91;43.58
73171;BME280;61381;50.118;19.962;2023-04-28T17:04:03;98460.22;;;13.83;44.29
73171;BME280;61381;50.118;19.962;2023-04-28T17:09:04;98457.25;;;13.70;44.55
73171;BME280;61381;50.118;19.962;2023-04-28T17:14:05;98460.25;;;13.69;45.04
73171;BME280;61381;50.118;19.962;2023-04-28T17:19:08;98463.25;;;13.45;45.76
73171;BME280;61381;50.118;19.962;2023-04-28T17:24:09;98467.16;;;13.25;46.52
73171;BME280;61381;50.118;19.962;2023-04-28T17:29:10;98452.94;;;12.96;47.14
73171;BME280;61381;50.118;19.962;2023-04-28T17:34:13;98452.16;;;12.82;48.08
73171;BME280;61381;50.118;19.962;2023-04-28T17:39:14;98439.41;;;12.60;48.22
73171;BME280;61381;50.118;19.962;2023-04-28T17:44:15;98428.19;;;12.44;47.99
73171;BME280;61381;50.118;19.962;2023-04-28T17:49:17;98428.94;;;12.30;48.65
73171;BME280;61381;50.118;19.962;2023-04-28T17:54:18;98419.97;;;12.07;49.09
73171;BME280;61381;50.118;19.962;2023-04-28T17:59:19;98426.41;;;11.92;49.90
73171;BME280;61381;50.118;19.962;2023-04-28T18:04:22;98431.41;;;11.80;51.17
73171;BME280;61381;50.118;19.962;2023-04-28T18:09:23;98423.16;;;11.57;51.57
73171;BME280;61381;50.118;19.962;2023-04-28T18:14:24;98416.38;;;11.46;52.46
73171;BME280;61381;50.118;19.962;2023-04-28T18:19:27;98430.00;;;11.31;52.23
73171;BME280;61381;50.118;19.962;2023-04-28T18:24:28;98426.09;;;11.23;53.36
73171;BME280;61381;50.118;19.962;2023-04-28T18:29:29;98428.84;;;10.99;54.13
73171;BME280;61381;50.118;19.962;2023-04-28T18:34:31;98433.44;;;10.93;54.17
73171;BME280;61381;50.118;19.962;2023-04-28T18:39:32;98435.13;;;10.89;53.19
73171;BME280;61381;50.118;19.962;2023-04-28T18:44:33;98438.88;;;10.88;52.61
73171;BME280;61381;50.118;19.962;2023-04-28T18:49:36;98439.63;;;10.94;51.61
73171;BME280;61381;50.118;19.962;2023-04-28T18:54:37;98433.31;;;11.03;50.80
73171;BME280;61381;50.118;19.962;2023-04-28T18:59:37;98448.53;;;11.08;51.02
73171;BME280;61381;50.118;19.962;2023-04-28T19:04:40;98437.03;;;11.07;50.77
73171;BME280;61381;50.118;19.962;2023-04-28T19:09:41;98442.59;;;11.11;50.79
73171;BME280;61381;50.118;19.962;2023-04-28T19:14:42;98434.84;;;11.10;51.09
73171;BME280;61381;50.118;19.962;2023-04-28T19:19:44;98435.22;;;11.03;51.28
73171;BME280;61381;50.118;19.962;2023-04-28T19:24:45;98435.25;;;10.98;51.81
73171;BME280;61381;50.118;19.962;2023-04-28T19:29:46;98436.22;;;10.88;52.15
73171;BME280;61381;50.118;19.962;2023-04-28T19:34:49;98424.88;;;10.72;52.44
73171;BME280;61381;50.118;19.962;2023-04-28T19:39:50;98425.56;;;10.59;52.93
73171;BME280;61381;50.118;19.962;2023-04-28T19:44:53;98418.28;;;10.40;53.96
73171;BME280;61381;50.118;19.962;2023-04-28T19:49:56;98419.00;;;10.16;55.21
73171;BME280;61381;50.118;19.962;2023-04-28T19:54:57;98408.25;;;9.97;56.33
73171;BME280;61381;50.118;19.962;2023-04-28T19:59:58;98404.28;;;9.90;56.30
73171;BME280;61381;50.118;19.962;2023-04-28T20:05:00;98402.22;;;9.81;56.74
73171;BME280;61381;50.118;19.962;2023-04-28T20:10:02;98400.16;;;9.73;56.58
73171;BME280;61381;50.118;19.962;2023-04-28T20:15:03;98396.47;;;9.64;56.93
73171;BME280;61381;50.118;19.962;2023-04-28T20:20:07;98402.16;;;9.57;57.46
73171;BME280;61381;50.118;19.962;2023-04-28T20:25:08;98387.69;;;9.58;57.45
73171;BME280;61381;50.118;19.962;2023-04-28T20:30:10;98389.16;;;9.45;57.91
73171;BME280;61381;50.118;19.962;2023-04-28T20:35:12;98389.25;;;9.30;59.16
73171;BME280;61381;50.118;19.962;2023-04-28T20:40:13;98380.50;;;9.19;59.90
73171;BME280;61381;50.118;19.962;2023-04-28T20:45:15;98372.78;;;9.13;60.65
73171;BME280;61381;50.118;19.962;2023-04-28T20:50:17;98372.03;;;9.07;61.53
73171;BME280;61381;50.118;19.962;2023-04-28T20:55:18;98361.69;;;8.95;62.29
73171;BME280;61381;50.118;19.962;2023-04-28T21:00:19;98372.41;;;8.90;63.38
73171;BME280;61381;50.118;19.962;2023-04-28T21:05:22;98367.94;;;8.75;64.40
73171;BME280;61381;50.118;19.962;2023-04-28T21:10:23;98366.41;;;8.59;66.04
73171;BME280;61381;50.118;19.962;2023-04-28T21:15:24;98368.59;;;8.41;67.72
73171;BME280;61381;50.118;19.962;2023-04-28T21:20:26;98362.75;;;8.34;68.65
73171;BME280;61381;50.118;19.962;2023-04-28T21:25:27;98362.00;;;8.18;69.88
73171;BME280;61381;50.118;19.962;2023-04-28T21:30:28;98371.63;;;8.03;71.96
73171;BME280;61381;50.118;19.962;2023-04-28T21:35:31;98364.22;;;7.80;74.00
73171;BME280;61381;50.118;19.962;2023-04-28T21:40:32;98364.22;;;7.54;76.58
73171;BME280;61381;50.118;19.962;2023-04-28T21:45:33;98358.91;;;7.34;78.00
73171;BME280;61381;50.118;19.962;2023-04-28T21:50:35;98361.81;;;7.11;79.52
73171;BME280;61381;50.118;19.962;2023-04-28T21:55:36;98359.63;;;6.77;84.50
73171;BME280;61381;50.118;19.962;2023-04-28T22:00:39;98348.88;;;6.57;90.10
73171;BME280;61381;50.118;19.962;2023-04-28T22:05:43;98347.53;;;6.49;89.53
73171;BME280;61381;50.118;19.962;2023-04-28T22:10:44;98348.00;;;6.31;91.14
73171;BME280;61381;50.118;19.962;2023-04-28T22:15:45;98349.06;;;6.30;91.08
73171;BME280;61381;50.118;19.962;2023-04-28T22:20:48;98331.97;;;6.10;97.27
73171;BME280;61381;50.118;19.962;2023-04-28T22:25:49;98334.81;;;5.98;98.06
73171;BME280;61381;50.118;19.962;2023-04-28T22:30:50;98333.06;;;6.14;97.80
73171;BME280;61381;50.118;19.962;2023-04-28T22:35:52;98326.75;;;5.88;100.00
73171;BME280;61381;50.118;19.962;2023-04-28T22:40:53;98329.50;;;5.98;100.00
73171;BME280;61381;50.118;19.962;2023-04-28T22:45:56;98319.94;;;5.97;100.00
73171;BME280;61381;50.118;19.962;2023-04-28T22:50:58;98321.91;;;6.17;99.39
73171;BME280;61381;50.118;19.962;2023-04-28T22:55:59;98328.31;;;6.27;98.28
73171;BME280;61381;50.118;19.962;2023-04-28T23:01:00;98334.16;;;6.29;99.48
73171;BME280;61381;50.118;19.962;2023-04-28T23:06:03;98329.63;;;6.24;100.00
73171;BME280;61381;50.118;19.962;2023-04-28T23:11:04;98331.19;;;6.15;100.00
73171;BME280;61381;50.118;19.962;2023-04-28T23:16:06;98331.16;;;6.10;100.00
73171;BME280;61381;50.118;19.962;2023-04-28T23:21:08;98317.88;;;6.10;100.00
73171;BME280;61381;50.118;19.962;2023-04-28T23:26:09;98310.66;;;6.05;100.00
73171;BME280;61381;50.118;19.962;2023-04-28T23:31:10;98306.13;;;6.00;100.00
73171;BME280;61381;50.118;19.962;2023-04-28T23:36:12;98308.19;;;5.93;100.00
73171;BME280;61381;50.118;19.962;2023-04-28T23:41:13;98296.38;;;5.74;100.00
73171;BME280;61381;50.118;19.962;2023-04-28T23:46:14;98285.47;;;5.70;100.00
73171;BME280;61381;50.118;19.962;2023-04-28T23:51:17;98292.34;;;5.66;100.00
73171;BME280;61381;50.118;19.962;2023-04-28T23:56:18;98285.78;;;5.36;100.00
